createdAt,value
2022-07-27T00:00:57.511Z,99529.94
2022-07-27T00:03:24.949Z,99535.72
2022-07-27T00:05:52.110Z,99533.75
2022-07-27T00:08:23.943Z,99551.44
2022-07-27T00:10:52.104Z,99544.88
2022-07-27T00:13:19.250Z,99548.31
2022-07-27T00:15:46.373Z,99547.72
2022-07-27T00:18:13.741Z,99551.63
2022-07-27T00:20:41.641Z,99550.16
2022-07-27T00:23:08.783Z,99545.81
2022-07-27T00:25:36.179Z,99546.44
2022-07-27T00:28:03.469Z,99547.22
2022-07-27T00:30:30.613Z,99548.50
2022-07-27T00:32:58.081Z,99554.03
2022-07-27T00:35:25.455Z,99548.97
2022-07-27T00:37:52.605Z,99548.97
2022-07-27T00:40:20.151Z,99555.88
2022-07-27T00:42:47.246Z,99545.41
2022-07-27T00:45:14.615Z,99550.31
2022-07-27T00:47:42.059Z,99545.09
2022-07-27T00:50:09.297Z,99550.84
2022-07-27T00:52:36.800Z,99553.91
2022-07-27T00:55:04.650Z,99551.44
2022-07-27T00:57:31.752Z,99542.78
2022-07-27T00:59:58.886Z,99550.28
2022-07-27T01:02:26.489Z,99541.84
2022-07-27T01:04:57.042Z,99545.41
2022-07-27T01:07:24.594Z,99542.41
2022-07-27T01:09:58.163Z,99546.53
2022-07-27T01:12:28.893Z,99545.22
2022-07-27T01:14:56.953Z,99544.78
2022-07-27T01:17:24.444Z,99545.47
2022-07-27T01:19:51.664Z,99549.22
2022-07-27T01:22:19.041Z,99558.00
2022-07-27T01:24:46.197Z,99555.66
2022-07-27T01:27:13.305Z,99560.94
2022-07-27T01:29:41.649Z,99552.97
2022-07-27T01:32:08.823Z,99549.81
2022-07-27T01:34:35.993Z,99542.78
2022-07-27T01:37:03.577Z,99545.84
2022-07-27T01:39:30.781Z,99554.81
2022-07-27T01:41:58.046Z,99556.12
2022-07-27T01:44:25.418Z,99557.28
2022-07-27T01:46:52.727Z,99551.84
2022-07-27T01:49:20.217Z,99562.88
2022-07-27T01:51:47.855Z,99559.34
2022-07-27T01:54:15.106Z,99549.66
2022-07-27T01:56:42.311Z,99549.53
2022-07-27T01:59:16.848Z,99545.31
2022-07-27T02:01:44.924Z,99547.59
2022-07-27T02:04:12.490Z,99543.59
2022-07-27T02:06:39.651Z,99548.94
2022-07-27T02:09:06.868Z,99538.31
2022-07-27T02:11:52.718Z,99535.28
2022-07-27T02:14:21.346Z,99530.03
2022-07-27T02:16:49.918Z,99533.88
2022-07-27T02:19:18.303Z,99536.72
2022-07-27T02:21:45.983Z,99534.81
2022-07-27T02:24:13.413Z,99540.31
2022-07-27T02:26:40.523Z,99544.59
2022-07-27T02:29:07.681Z,99547.59
2022-07-27T02:31:35.385Z,99553.38
2022-07-27T02:34:02.506Z,99537.41
2022-07-27T02:36:29.666Z,99555.62
2022-07-27T02:38:57.250Z,99558.31
2022-07-27T02:41:24.443Z,99557.75
2022-07-27T02:43:51.686Z,99554.56
2022-07-27T02:46:19.096Z,99543.69
2022-07-27T02:48:46.374Z,99548.25
2022-07-27T02:51:15.065Z,99543.97
2022-07-27T02:53:42.644Z,99542.91
2022-07-27T02:56:09.867Z,99535.47
2022-07-27T02:58:37.512Z,99540.06
2022-07-27T03:01:05.312Z,99538.56
2022-07-27T03:03:36.635Z,99554.22
2022-07-27T03:06:05.727Z,99545.31
2022-07-27T03:08:32.855Z,99539.47
2022-07-27T03:10:59.979Z,99542.22
2022-07-27T03:13:28.943Z,99536.66
2022-07-27T03:15:56.283Z,99532.09
2022-07-27T03:18:23.463Z,99541.06
2022-07-27T03:20:50.857Z,99541.56
2022-07-27T03:23:18.096Z,99533.66
2022-07-27T03:25:45.211Z,99530.75
2022-07-27T03:28:12.615Z,99539.09
2022-07-27T03:30:39.796Z,99544.75
2022-07-27T03:33:06.971Z,99546.66
2022-07-27T03:35:34.324Z,99544.91
2022-07-27T03:38:01.554Z,99548.19
2022-07-27T03:40:33.500Z,99544.09
2022-07-27T03:43:00.950Z,99543.72
2022-07-27T03:45:28.094Z,99550.94
2022-07-27T03:47:55.257Z,99549.41
2022-07-27T03:50:22.770Z,99553.19
2022-07-27T03:52:50.269Z,99552.19
2022-07-27T03:55:17.509Z,99542.38
2022-07-27T03:57:44.926Z,99548.41
2022-07-27T04:00:13.100Z,99541.09
2022-07-27T04:02:40.788Z,99545.06
2022-07-27T04:05:08.349Z,99549.19
2022-07-27T04:07:35.483Z,99541.09
2022-07-27T04:10:02.966Z,99551.59
2022-07-27T04:12:30.881Z,99546.13
2022-07-27T04:14:58.936Z,99547.31
2022-07-27T04:17:54.829Z,99543.91
2022-07-27T04:20:13.490Z,99554.69
2022-07-27T04:22:42.095Z,99556.97
2022-07-27T04:25:09.392Z,99554.44
2022-07-27T04:27:36.547Z,99555.75
2022-07-27T04:30:08.982Z,99559.75
2022-07-27T04:32:36.810Z,99557.34
2022-07-27T04:35:04.419Z,99568.16
2022-07-27T04:37:32.062Z,99567.34
2022-07-27T04:39:59.202Z,99558.53
2022-07-27T04:42:26.573Z,99547.03
2022-07-27T04:44:53.697Z,99554.28
2022-07-27T04:47:20.793Z,99555.56
2022-07-27T04:49:48.221Z,99550.78
2022-07-27T04:52:16.173Z,99549.66
2022-07-27T04:54:43.343Z,99547.31
2022-07-27T04:57:10.704Z,99550.34
2022-07-27T04:59:37.864Z,99550.69
2022-07-27T05:02:04.973Z,99546.06
2022-07-27T05:04:32.496Z,99549.28
2022-07-27T05:06:59.681Z,99549.41
2022-07-27T05:09:26.834Z,99536.00
2022-07-27T05:11:54.198Z,99538.59
2022-07-27T05:14:21.896Z,99529.41
2022-07-27T05:16:49.889Z,99533.47
2022-07-27T05:19:17.401Z,99524.88
2022-07-27T05:21:44.518Z,99519.00
2022-07-27T05:24:11.766Z,99526.22
2022-07-27T05:26:39.130Z,99524.22
2022-07-27T05:29:06.237Z,99523.91
2022-07-27T05:31:33.449Z,99514.63
2022-07-27T05:34:00.910Z,99506.59
2022-07-27T05:36:28.108Z,99511.16
2022-07-27T05:38:55.297Z,99515.66
2022-07-27T05:41:25.783Z,99521.87
2022-07-27T05:43:54.365Z,99518.28
2022-07-27T05:46:21.838Z,99514.78
2022-07-27T05:48:49.444Z,99513.75
2022-07-27T05:51:16.601Z,99522.97
2022-07-27T05:53:43.693Z,99526.28
2022-07-27T05:56:11.462Z,99529.66
2022-07-27T05:58:38.606Z,99530.84
2022-07-27T06:01:05.751Z,99527.03
2022-07-27T06:03:33.273Z,99525.19
2022-07-27T06:06:19.294Z,99526.63
2022-07-27T06:08:46.702Z,99534.03
2022-07-27T06:11:14.477Z,99534.63
2022-07-27T06:13:42.264Z,99541.53
2022-07-27T06:16:09.995Z,99533.22
2022-07-27T06:18:37.216Z,99529.16
2022-07-27T06:21:04.740Z,99538.13
2022-07-27T06:23:32.133Z,99537.44
2022-07-27T06:25:59.289Z,99535.94
2022-07-27T06:28:26.730Z,99534.06
2022-07-27T06:30:54.110Z,99526.88
2022-07-27T06:33:27.718Z,99531.66
2022-07-27T06:35:56.704Z,99528.03
2022-07-27T06:38:24.616Z,99529.22
2022-07-27T06:40:55.001Z,99530.78
2022-07-27T06:43:26.275Z,99532.84
2022-07-27T06:45:56.393Z,99531.59
2022-07-27T06:48:23.859Z,99526.81
2022-07-27T06:50:51.085Z,99524.88
2022-07-27T06:53:21.082Z,99526.00
2022-07-27T06:55:49.299Z,99518.84
2022-07-27T06:58:16.561Z,99519.22
2022-07-27T07:00:43.826Z,99516.03
2022-07-27T07:03:11.506Z,99514.06
2022-07-27T07:05:45.337Z,99515.69
2022-07-27T07:08:13.493Z,99519.16
2022-07-27T07:10:40.954Z,99515.81
2022-07-27T07:13:08.097Z,99511.44
2022-07-27T07:15:35.878Z,99513.13
2022-07-27T07:18:03.829Z,99505.13
2022-07-27T07:20:30.934Z,99514.75
2022-07-27T07:22:58.597Z,99507.44
2022-07-27T07:25:25.804Z,99499.66
2022-07-27T07:27:52.909Z,99504.94
2022-07-27T07:30:20.330Z,99509.28
2022-07-27T07:32:47.586Z,99512.91
2022-07-27T07:35:14.685Z,99503.66
2022-07-27T07:37:42.094Z,99502.38
2022-07-27T07:40:41.254Z,99485.81
2022-07-27T07:43:00.107Z,99496.00
2022-07-27T07:45:27.805Z,99490.28
2022-07-27T07:47:55.027Z,99509.19
2022-07-27T07:50:22.634Z,99516.91
2022-07-27T07:52:50.254Z,99518.53
2022-07-27T07:55:23.849Z,99496.78
2022-07-27T07:57:51.253Z,99502.31
2022-07-27T08:00:19.364Z,99506.81
2022-07-27T08:02:47.336Z,99511.13
2022-07-27T08:05:14.467Z,99505.87
2022-07-27T08:07:41.753Z,99496.22
2022-07-27T08:10:09.426Z,99500.44
2022-07-27T08:12:37.000Z,99483.88
2022-07-27T08:15:04.579Z,99481.34
2022-07-27T08:17:32.008Z,99483.66
2022-07-27T08:19:59.121Z,99506.28
2022-07-27T08:22:26.246Z,99492.31
2022-07-27T08:24:53.611Z,99494.59
2022-07-27T08:27:20.746Z,99493.56
2022-07-27T08:29:47.894Z,99480.97
2022-07-27T08:32:19.482Z,99470.13
2022-07-27T08:34:46.680Z,99471.72
2022-07-27T08:37:15.774Z,99470.78
2022-07-27T08:42:30.489Z,99483.44
2022-07-27T08:44:57.861Z,99476.16
2022-07-27T08:47:25.076Z,99469.44
2022-07-27T08:49:52.279Z,99471.59
2022-07-27T08:52:20.093Z,99465.31
2022-07-27T08:54:47.261Z,99467.69
2022-07-27T08:57:14.573Z,99469.25
2022-07-27T08:59:41.946Z,99499.38
2022-07-27T09:02:11.099Z,99488.59
2022-07-27T09:04:39.986Z,99474.38
2022-07-27T09:07:07.370Z,99475.13
2022-07-27T09:09:45.966Z,99466.84
2022-07-27T09:12:13.314Z,99468.81
2022-07-27T09:14:40.979Z,99460.66
2022-07-27T09:20:17.656Z,99475.75
2022-07-27T09:22:46.590Z,99478.09
2022-07-27T09:25:14.935Z,99465.44
2022-07-27T09:27:42.639Z,99478.03
2022-07-27T09:30:14.116Z,99456.88
2022-07-27T09:32:54.959Z,99456.81
2022-07-27T09:35:23.290Z,99457.09
2022-07-27T09:37:50.688Z,99453.47
2022-07-27T09:40:24.257Z,99446.31
2022-07-27T09:43:52.248Z,99442.25
2022-07-27T09:45:57.004Z,99466.03
2022-07-27T09:48:24.489Z,99446.91
2022-07-27T09:51:02.252Z,99448.47
2022-07-27T09:53:43.687Z,99451.03
2022-07-27T09:56:13.204Z,99467.69
2022-07-27T09:58:55.728Z,99455.69
2022-07-27T10:01:23.966Z,99446.09
2022-07-27T10:04:00.938Z,99450.34
2022-07-27T10:06:28.122Z,99431.47
2022-07-27T10:08:55.822Z,99441.00
2022-07-27T10:11:23.161Z,99439.97
2022-07-27T10:13:50.404Z,99443.59
2022-07-27T10:16:18.716Z,99453.19
2022-07-27T10:19:08.079Z,99454.91
2022-07-27T10:21:37.530Z,99440.47
2022-07-27T10:24:05.563Z,99447.44
2022-07-27T10:26:36.439Z,99452.47
2022-07-27T10:29:04.884Z,99446.50
2022-07-27T10:31:38.404Z,99432.66
2022-07-27T10:34:06.471Z,99425.16
2022-07-27T10:36:33.526Z,99431.84
2022-07-27T10:39:01.284Z,99427.25
2022-07-27T10:41:28.617Z,99428.87
2022-07-27T10:44:14.972Z,99420.00
2022-07-27T10:46:45.328Z,99417.81
2022-07-27T10:49:19.248Z,99412.19
2022-07-27T10:51:46.695Z,99405.44
2022-07-27T10:54:20.570Z,99409.19
2022-07-27T10:56:48.547Z,99428.53
2022-07-27T10:59:15.673Z,99435.00
2022-07-27T11:02:00.917Z,99444.91
2022-07-27T11:04:28.330Z,99436.59
2022-07-27T11:07:23.525Z,99429.16
2022-07-27T11:12:30.541Z,99427.81
2022-07-27T11:14:58.061Z,99434.56
2022-07-27T11:20:14.063Z,99440.31
2022-07-27T11:25:28.671Z,99429.69
2022-07-27T11:27:55.809Z,99422.72
2022-07-27T11:30:23.802Z,99425.88
2022-07-27T11:32:51.268Z,99428.22
2022-07-27T11:35:20.184Z,99438.28
2022-07-27T11:38:05.097Z,99435.72
2022-07-27T11:43:36.818Z,99427.88
2022-07-27T11:46:30.957Z,99421.09
2022-07-27T11:49:08.445Z,99432.88
2022-07-27T11:51:39.331Z,99427.28
2022-07-27T11:54:07.473Z,99437.31
2022-07-27T11:56:35.065Z,99441.62
2022-07-27T11:59:08.225Z,99429.16
2022-07-27T12:01:36.618Z,99441.16
2022-07-27T12:04:04.702Z,99430.97
2022-07-27T12:06:32.331Z,99427.66
2022-07-27T12:09:00.005Z,99421.06
2022-07-27T12:11:34.016Z,99411.00
2022-07-27T12:14:10.790Z,99425.31
2022-07-27T12:16:38.252Z,99418.38
2022-07-27T12:19:05.595Z,99416.53
2022-07-27T12:21:32.673Z,99407.41
2022-07-27T12:24:00.469Z,99419.41
2022-07-27T12:26:29.941Z,99402.84
2022-07-27T12:29:06.982Z,99393.44
2022-07-27T12:31:35.061Z,99391.59
2022-07-27T12:34:06.527Z,99394.62
2022-07-27T12:36:33.869Z,99394.81
2022-07-27T12:39:01.297Z,99387.16
2022-07-27T12:41:29.724Z,99388.38
2022-07-27T12:44:11.006Z,99389.03
2022-07-27T12:47:01.683Z,99390.19
2022-07-27T12:49:35.076Z,99386.78
2022-07-27T12:52:09.550Z,99376.56
2022-07-27T12:54:37.000Z,99380.56
2022-07-27T12:57:04.430Z,99378.94
2022-07-27T12:59:31.564Z,99382.50
2022-07-27T13:01:58.830Z,99372.03
2022-07-27T13:04:26.338Z,99372.28
2022-07-27T13:06:53.487Z,99366.16
2022-07-27T13:09:20.620Z,99360.56
2022-07-27T13:11:48.532Z,99360.44
2022-07-27T13:14:16.492Z,99363.44
2022-07-27T13:16:44.081Z,99366.97
2022-07-27T13:19:14.326Z,99365.41
2022-07-27T13:21:41.674Z,99363.94
2022-07-27T13:24:10.598Z,99366.75
2022-07-27T13:26:38.314Z,99370.13
2022-07-27T13:29:05.468Z,99366.13
2022-07-27T13:31:32.735Z,99376.47
2022-07-27T13:34:00.334Z,99369.47
2022-07-27T13:36:27.449Z,99362.03
2022-07-27T13:38:54.630Z,99360.34
2022-07-27T13:41:22.291Z,99366.63
2022-07-27T13:43:49.418Z,99359.75
2022-07-27T13:46:16.621Z,99340.50
2022-07-27T13:48:44.119Z,99345.66
2022-07-27T13:51:11.308Z,99338.37
2022-07-27T13:53:38.639Z,99337.97
2022-07-27T13:56:07.454Z,99344.25
2022-07-27T13:58:34.578Z,99337.47
2022-07-27T14:01:07.337Z,99343.28
2022-07-27T14:03:35.097Z,99337.00
2022-07-27T14:06:02.246Z,99326.28
2022-07-27T14:08:30.212Z,99325.31
2022-07-27T14:10:57.677Z,99330.53
2022-07-27T14:13:26.494Z,99319.38
2022-07-27T14:15:55.496Z,99317.63
2022-07-27T14:18:24.301Z,99318.25
2022-07-27T14:20:51.521Z,99318.56
2022-07-27T14:23:18.634Z,99315.97
2022-07-27T14:25:46.416Z,99306.78
2022-07-27T14:28:13.565Z,99309.09
2022-07-27T14:30:40.708Z,99302.06
2022-07-27T14:33:08.198Z,99306.81
2022-07-27T14:35:40.227Z,99304.84
2022-07-27T14:38:08.480Z,99302.91
2022-07-27T14:40:35.629Z,99298.94
2022-07-27T14:43:02.866Z,99302.09
2022-07-27T14:45:44.701Z,99299.19
2022-07-27T14:48:23.132Z,99300.47
2022-07-27T14:51:00.248Z,99293.63
2022-07-27T14:53:27.366Z,99295.97
2022-07-27T14:55:54.493Z,99296.03
2022-07-27T14:58:21.921Z,99311.16
2022-07-27T15:00:49.056Z,99304.09
2022-07-27T15:03:16.617Z,99301.06
2022-07-27T15:05:49.924Z,99301.28
2022-07-27T15:08:21.154Z,99297.06
2022-07-27T15:10:48.772Z,99297.88
2022-07-27T15:13:16.452Z,99290.44
2022-07-27T15:15:43.984Z,99294.50
2022-07-27T15:18:11.521Z,99297.59
2022-07-27T15:20:38.630Z,99287.53
2022-07-27T15:23:06.584Z,99290.56
2022-07-27T15:25:34.119Z,99292.03
2022-07-27T15:28:01.382Z,99291.50
2022-07-27T15:30:28.634Z,99293.44
2022-07-27T15:32:56.031Z,99287.56
2022-07-27T15:35:23.350Z,99286.09
2022-07-27T15:37:54.176Z,99281.91
2022-07-27T15:40:38.368Z,99290.88
2022-07-27T15:43:06.060Z,99285.44
2022-07-27T15:45:38.356Z,99285.88
2022-07-27T15:48:06.029Z,99279.53
2022-07-27T15:50:33.421Z,99283.66
2022-07-27T15:53:01.636Z,99284.97
2022-07-27T15:55:28.814Z,99283.00
2022-07-27T15:57:56.173Z,99284.06
2022-07-27T16:00:23.325Z,99285.31
2022-07-27T16:02:53.181Z,99277.78
2022-07-27T16:05:21.110Z,99277.47
2022-07-27T16:07:48.269Z,99295.62
2022-07-27T16:10:15.760Z,99284.13
2022-07-27T16:12:43.031Z,99292.87
2022-07-27T16:15:10.515Z,99292.31
2022-07-27T16:17:38.130Z,99298.97
2022-07-27T16:20:05.481Z,99294.97
2022-07-27T16:22:34.308Z,99308.13
2022-07-27T16:25:01.696Z,99308.47
2022-07-27T16:27:28.930Z,99303.53
2022-07-27T16:29:56.961Z,99305.88
2022-07-27T16:32:24.569Z,99319.16
2022-07-27T16:34:51.880Z,99313.34
2022-07-27T16:37:19.017Z,99319.81
2022-07-27T16:39:46.451Z,99328.69
2022-07-27T16:42:13.592Z,99312.81
2022-07-27T16:44:41.418Z,99317.66
2022-07-27T16:47:09.690Z,99318.19
2022-07-27T16:49:37.205Z,99312.88
2022-07-27T16:52:05.242Z,99314.31
2022-07-27T16:54:37.083Z,99326.25
2022-07-27T16:57:06.900Z,99333.66
2022-07-27T16:59:34.308Z,99319.53
2022-07-27T17:02:01.532Z,99318.03
2022-07-27T17:04:28.774Z,99327.25
2022-07-27T17:06:56.207Z,99333.50
2022-07-27T17:09:23.362Z,99333.53
2022-07-27T17:11:50.527Z,99331.47
2022-07-27T17:14:18.031Z,99336.03
2022-07-27T17:16:51.821Z,99343.16
2022-07-27T17:19:19.756Z,99357.34
2022-07-27T17:21:47.962Z,99360.31
2022-07-27T17:24:15.130Z,99362.09
2022-07-27T17:26:42.520Z,99375.19
2022-07-27T17:29:09.953Z,99386.53
2022-07-27T17:31:37.378Z,99390.19
2022-07-27T17:34:04.854Z,99385.41
2022-07-27T17:36:32.000Z,99392.56
2022-07-27T17:39:00.315Z,99389.13
2022-07-27T17:41:27.710Z,99389.78
2022-07-27T17:43:55.010Z,99385.59
2022-07-27T17:46:22.823Z,99384.31
2022-07-27T17:48:50.518Z,99390.66
2022-07-27T17:51:17.701Z,99392.44
2022-07-27T17:53:44.877Z,99389.03
2022-07-27T17:56:13.231Z,99388.22
2022-07-27T17:58:40.413Z,99391.69
2022-07-27T18:01:08.751Z,99391.87
2022-07-27T18:03:36.226Z,99391.87
2022-07-27T18:06:03.348Z,99393.81
2022-07-27T18:08:30.492Z,99391.63
2022-07-27T18:10:57.977Z,99394.91
2022-07-27T18:13:37.934Z,99396.19
2022-07-27T18:16:12.013Z,99399.72
2022-07-27T18:18:39.821Z,99394.31
2022-07-27T18:21:07.058Z,99401.03
2022-07-27T18:23:34.655Z,99410.38
2022-07-27T18:26:01.801Z,99401.66
2022-07-27T18:28:28.976Z,99412.59
2022-07-27T18:30:56.461Z,99419.88
2022-07-27T18:33:24.871Z,99416.50
2022-07-27T18:35:52.001Z,99420.03
2022-07-27T18:38:21.417Z,99427.63
2022-07-27T18:40:48.532Z,99436.69
2022-07-27T18:43:16.042Z,99434.00
2022-07-27T18:45:43.415Z,99453.34
2022-07-27T18:48:10.662Z,99450.78
2022-07-27T18:50:39.565Z,99466.28
2022-07-27T18:53:07.661Z,99455.88
2022-07-27T18:55:34.830Z,99461.09
2022-07-27T18:58:02.034Z,99465.75
2022-07-27T19:00:29.584Z,99465.97
2022-07-27T19:02:58.005Z,99473.44
2022-07-27T19:05:32.311Z,99472.34
2022-07-27T19:08:13.493Z,99469.66
2022-07-27T19:10:42.081Z,99468.03
2022-07-27T19:13:10.478Z,99479.47
2022-07-27T19:15:37.850Z,99486.78
2022-07-27T19:18:05.334Z,99485.22
2022-07-27T19:20:32.798Z,99499.31
2022-07-27T19:23:00.750Z,99502.56
2022-07-27T19:25:30.318Z,99504.19
2022-07-27T19:27:57.812Z,99506.34
2022-07-27T19:30:24.948Z,99519.97
2022-07-27T19:32:52.079Z,99526.47
2022-07-27T19:35:19.526Z,99523.75
2022-07-27T19:37:46.893Z,99526.53
2022-07-27T19:40:42.751Z,99530.56
2022-07-27T19:43:01.424Z,99528.66
2022-07-27T19:45:28.529Z,99533.81
2022-07-27T19:47:55.805Z,99536.22
2022-07-27T19:50:27.397Z,99531.31
2022-07-27T19:52:54.511Z,99547.09
2022-07-27T19:55:21.723Z,99550.94
2022-07-27T19:57:49.140Z,99544.97
2022-07-27T20:00:16.443Z,99557.94
2022-07-27T20:02:43.905Z,99563.00
2022-07-27T20:05:11.038Z,99566.63
2022-07-27T20:07:38.226Z,99574.91
2022-07-27T20:10:05.850Z,99580.09
2022-07-27T20:12:32.978Z,99570.25
2022-07-27T20:15:00.470Z,99573.09
2022-07-27T20:17:27.870Z,99573.53
2022-07-27T20:19:54.982Z,99571.81
2022-07-27T20:22:22.436Z,99582.37
2022-07-27T20:24:49.880Z,99580.63
2022-07-27T20:27:17.029Z,99577.78
2022-07-27T20:29:44.138Z,99571.25
2022-07-27T20:32:12.562Z,99574.16
2022-07-27T20:34:39.685Z,99574.47
2022-07-27T20:37:07.011Z,99572.84
2022-07-27T20:39:34.437Z,99579.47
2022-07-27T20:42:02.423Z,99576.09
2022-07-27T20:44:29.591Z,99572.16
2022-07-27T20:46:56.956Z,99572.88
2022-07-27T20:49:24.945Z,99570.31
2022-07-27T20:51:52.146Z,99563.00
2022-07-27T20:54:29.064Z,99556.63
2022-07-27T20:56:57.041Z,99561.94
2022-07-27T20:59:24.584Z,99563.25
2022-07-27T21:01:52.141Z,99573.28
2022-07-27T21:04:19.604Z,99572.69
2022-07-27T21:06:47.035Z,99570.28
2022-07-27T21:09:14.456Z,99569.44
2022-07-27T21:11:41.936Z,99560.47
2022-07-27T21:14:09.660Z,99568.94
2022-07-27T21:16:37.074Z,99580.47
2022-07-27T21:19:04.302Z,99583.16
2022-07-27T21:21:31.715Z,99598.66
2022-07-27T21:24:18.331Z,99602.16
2022-07-27T21:26:48.715Z,99608.53
2022-07-27T21:29:16.317Z,99611.28
2022-07-27T21:31:46.909Z,99612.53
2022-07-27T21:34:17.106Z,99610.31
2022-07-27T21:36:44.357Z,99619.19
2022-07-27T21:39:11.557Z,99616.03
2022-07-27T21:41:39.384Z,99625.31
2022-07-27T21:44:06.515Z,99625.53
2022-07-27T21:46:33.650Z,99625.13
2022-07-27T21:49:01.153Z,99633.78
2022-07-27T21:51:28.340Z,99623.41
2022-07-27T21:53:56.793Z,99630.31
2022-07-27T21:56:24.677Z,99622.34
2022-07-27T21:58:51.810Z,99627.00
2022-07-27T22:01:19.161Z,99620.72
2022-07-27T22:03:46.834Z,99623.81
2022-07-27T22:06:14.052Z,99612.81
2022-07-27T22:08:41.202Z,99613.06
2022-07-27T22:11:08.681Z,99614.28
2022-07-27T22:13:35.835Z,99621.31
2022-07-27T22:16:03.070Z,99614.81
2022-07-27T22:18:30.703Z,99620.41
2022-07-27T22:20:58.617Z,99619.69
2022-07-27T22:23:25.802Z,99615.62
2022-07-27T22:25:53.247Z,99612.28
2022-07-27T22:28:20.622Z,99622.41
2022-07-27T22:31:20.610Z,99619.50
2022-07-27T22:33:40.914Z,99627.06
2022-07-27T22:36:12.268Z,99630.31
2022-07-27T22:38:39.613Z,99619.97
2022-07-27T22:41:06.920Z,99614.63
2022-07-27T22:43:34.302Z,99619.47
2022-07-27T22:46:04.905Z,99613.81
2022-07-27T22:48:32.372Z,99614.06
2022-07-27T22:50:59.883Z,99602.63
2022-07-27T22:53:27.057Z,99604.72
2022-07-27T22:55:54.239Z,99605.37
2022-07-27T22:58:21.735Z,99599.66
2022-07-27T23:00:49.089Z,99602.09
2022-07-27T23:03:16.430Z,99604.81
2022-07-27T23:05:43.923Z,99601.53
2022-07-27T23:08:11.123Z,99600.72
2022-07-27T23:10:47.438Z,99602.06
2022-07-27T23:13:15.165Z,99607.56
2022-07-27T23:15:42.595Z,99604.22
2022-07-27T23:18:09.745Z,99599.13
2022-07-27T23:20:37.444Z,99602.91
2022-07-27T23:23:05.012Z,99602.91
2022-07-27T23:25:43.927Z,99598.00
2022-07-27T23:28:11.162Z,99602.63
2022-07-27T23:30:38.298Z,99602.38
2022-07-27T23:33:06.106Z,99605.66
2022-07-27T23:35:33.278Z,99604.28
2022-07-27T23:38:00.575Z,99602.09
2022-07-27T23:40:28.093Z,99610.16
2022-07-27T23:42:55.263Z,99602.06
2022-07-27T23:45:22.406Z,99607.84
2022-07-27T23:47:49.791Z,99612.41
2022-07-27T23:50:17.213Z,99618.72
2022-07-27T23:52:44.320Z,99614.47
2022-07-27T23:55:11.710Z,99615.44
2022-07-27T23:57:38.833Z,99621.31
